Terminal Aerodrome Forecast
Issued by NWS Twin Cities, MN

Home | Current Version | Previous Version | Graphics & Text | Print | Product List | Glossary On
Versions: 1 2 3 4 5 6 7 8 9 10 11 12 13 14 15 16 17
000
FTUS43 KMPX 021140
TAFSTC
TAF
KSTC 021140Z 0212/0312 21004KT P6SM SKC
     FM021800 16010KT P6SM SKC
     FM022200 16012KT P6SM FEW070 BKN100
     FM030400 16012KT 3SM -SN BR OVC025
     FM030900 15008KT 1 1/2SM -SN BR OVC008=

USA.gov is the U.S. government's official web portal to all federal, state and local government web resources and services.